Maersk Rosario — V2BG2 — position and weather

sailwx.info

Track history (hours):
 
Tides and Currents Weather Stations Pressure Air Temp Water Temp Dewpoint Dewpoint Depression Visibility Wind Speed Wind Dir Waves Ship Positions

Maersk Rosario

Last reported at 2016-Jun-22 21:18 UTC. Time now 2016-Jun-28 15:16 UTC.
Position N 27°52' W 015°16'.

Length 161.1 m; beam 25 m; draft 9.5 m.

Type: Cargo ship. MMSI: 304814000.

Date/timePositionNaut miles runAvg speedWind from/ knotsBaromVisibWave heightAir tempDewpointWater temp
2016-Jun-22 21:18N 27°52' W 015°16'1115.0
2016-Jun-22 20:33N 28°03' W 015°19'8 7.8
2016-Jun-22 19:33N 28°09' W 015°25'0 0.0
2016-Jun-22 18:33N 28°09' W 015°25'0 0.0
2016-Jun-22 17:33N 28°09' W 015°25'0 0.0
2016-Jun-22 16:33N 28°09' W 015°25'0 0.0
2016-Jun-22 15:24N 28°09' W 015°25'0 0.0
2016-Jun-22 14:27N 28°09' W 015°25'0 0.0
2016-Jun-22 13:27N 28°09' W 015°25'0 0.0
2016-Jun-22 12:24N 28°09' W 015°25'0 0.0
2016-Jun-22 11:30N 28°09' W 015°25'0 0.0
2016-Jun-22 10:15N 28°09' W 015°25'0 0.5
2016-Jun-22 09:34N 28°09' W 015°25'7 7.1
2016-Jun-22 08:33N 28°12' W 015°17'1616.3
2016-Jun-22 07:33N 28°23' W 015°04'1716.8
2016-Jun-22 06:32N 28°36' W 014°51'4916.3
2016-Jun-22 03:33N 29°10' W 014°11'23116.5
2016-Jun-21 13:33N 31°51' W 010°58'1717.1
2016-Jun-21 12:34N 32°02' W 010°43'1716.9
2016-Jun-21 11:33N 32°15' W 010°30'1616.5
2016-Jun-21 10:33N 32°25' W 010°15'31615.8
2016-Jun-20 14:32N 35°58' W 005°32'11 2.0
2016-Jun-20 09:18N 36°08' W 005°26'0 0.0
2016-Jun-20 08:33N 36°08' W 005°26'0 0.0
2016-Jun-20 07:33N 36°08' W 005°26'0 0.0
2016-Jun-20 06:15N 36°08' W 005°26'0 0.0
2016-Jun-20 05:24N 36°08' W 005°26'0 0.0
2016-Jun-20 04:33N 36°08' W 005°26'0 0.0
2016-Jun-20 03:33N 36°08' W 005°26'0 0.0
2016-Jun-20 02:33N 36°08' W 005°26'0 0.0
2016-Jun-20 01:30N 36°08' W 005°26'0 0.0
2016-Jun-20 00:30N 36°08' W 005°26'0 0.0
2016-Jun-19 23:30N 36°08' W 005°26'0 0.0
2016-Jun-19 22:33N 36°08' W 005°26'0 0.0
2016-Jun-19 21:30N 36°08' W 005°26'0 0.0
2016-Jun-19 19:15N 36°08' W 005°26'0 0.0
2016-Jun-19 18:21N 36°08' W 005°26'0 0.0
2016-Jun-19 17:24N 36°08' W 005°26'0 0.0
2016-Jun-19 16:33N 36°08' W 005°26'0 0.0
2016-Jun-19 15:30N 36°08' W 005°26'0 0.0
2016-Jun-19 14:30N 36°08' W 005°26'0 0.0
2016-Jun-19 12:09N 36°08' W 005°26'0 0.0
2016-Jun-19 09:06N 36°08' W 005°26'3 0.3
2016-Jun-19 00:31N 36°10' W 005°24'0 0.2
2016-Jun-18 23:07N 36°10' W 005°24'0 0.0
2016-Jun-18 22:22N 36°10' W 005°24'0 0.0
2016-Jun-18 20:13N 36°10' W 005°24'0 0.1
2016-Jun-18 19:31N 36°10' W 005°24'0 0.1
2016-Jun-18 17:31N 36°10' W 005°24'0 0.0
2016-Jun-18 13:13N 36°10' W 005°24'0 0.0
2016-Jun-18 09:19N 36°10' W 005°24'0 0.0
2016-Jun-18 06:31N 36°10' W 005°24'0 0.0
2016-Jun-18 03:16N 36°10' W 005°24'0 0.0
2016-Jun-18 02:22N 36°10' W 005°24'0 0.0
2016-Jun-17 23:13N 36°10' W 005°24'0 0.0
2016-Jun-17 22:28N 36°10' W 005°24'0 0.0
2016-Jun-17 21:31N 36°10' W 005°24'0 0.1
2016-Jun-17 20:31N 36°10' W 005°24'0 0.0
2016-Jun-17 19:22N 36°10' W 005°24'0 0.0
2016-Jun-16 04:31N 36°10' W 005°24'3 0.5
2016-Jun-15 21:13N 36°07' W 005°23'710.6
2016-Jun-15 20:33N 36°00' W 005°23'  
2016-Jun-13 10:33N 28°09' W 015°25'0 0.0
2016-Jun-13 09:33N 28°09' W 015°25'0 0.0
2016-Jun-13 08:33N 28°09' W 015°25'0 0.0
2016-Jun-13 07:33N 28°09' W 015°25'0 0.0
2016-Jun-13 06:33N 28°09' W 015°25'0 0.0
2016-Jun-13 05:33N 28°09' W 015°25'0 0.0
2016-Jun-13 04:33N 28°09' W 015°25'0 0.0
2016-Jun-13 03:24N 28°09' W 015°25'0 0.0
2016-Jun-13 02:27N 28°09' W 015°25'0 0.0
2016-Jun-13 01:27N 28°09' W 015°25'0 0.0
2016-Jun-13 00:27N 28°09' W 015°25'0 0.0
2016-Jun-12 23:30N 28°09' W 015°25'0 0.0
2016-Jun-12 22:30N 28°09' W 015°25'1 1.2
2016-Jun-12 21:33N 28°07' W 015°24'  
Track history (hours):
 
Tides and Currents Weather Stations Pressure Air Temp Water Temp Dewpoint Dewpoint Depression Visibility Wind Speed Wind Dir Waves Ship Positions

Maersk Rosario

Last reported at 2016-Jun-22 21:18 UTC. Time now 2016-Jun-28 15:16 UTC.
Position N 27°52' W 015°16'.

Length 161.1 m; beam 25 m; draft 9.5 m.

Type: Cargo ship. MMSI: 304814000.

Date/timePositionNaut miles runAvg speedWind from/ knotsBaromVisibWave heightAir tempDewpointWater temp
2016-Jun-22 21:18N 27°52' W 015°16'1115.0
2016-Jun-22 20:33N 28°03' W 015°19'8 7.8
2016-Jun-22 19:33N 28°09' W 015°25'0 0.0
2016-Jun-22 18:33N 28°09' W 015°25'0 0.0
2016-Jun-22 17:33N 28°09' W 015°25'0 0.0
2016-Jun-22 16:33N 28°09' W 015°25'0 0.0
2016-Jun-22 15:24N 28°09' W 015°25'0 0.0
2016-Jun-22 14:27N 28°09' W 015°25'0 0.0
2016-Jun-22 13:27N 28°09' W 015°25'0 0.0
2016-Jun-22 12:24N 28°09' W 015°25'0 0.0
2016-Jun-22 11:30N 28°09' W 015°25'0 0.0
2016-Jun-22 10:15N 28°09' W 015°25'0 0.5
2016-Jun-22 09:34N 28°09' W 015°25'7 7.1
2016-Jun-22 08:33N 28°12' W 015°17'1616.3
2016-Jun-22 07:33N 28°23' W 015°04'1716.8
2016-Jun-22 06:32N 28°36' W 014°51'4916.3
2016-Jun-22 03:33N 29°10' W 014°11'23116.5
2016-Jun-21 13:33N 31°51' W 010°58'1717.1
2016-Jun-21 12:34N 32°02' W 010°43'1716.9
2016-Jun-21 11:33N 32°15' W 010°30'1616.5
2016-Jun-21 10:33N 32°25' W 010°15'31615.8
2016-Jun-20 14:32N 35°58' W 005°32'11 2.0
2016-Jun-20 09:18N 36°08' W 005°26'0 0.0
2016-Jun-20 08:33N 36°08' W 005°26'0 0.0
2016-Jun-20 07:33N 36°08' W 005°26'0 0.0
2016-Jun-20 06:15N 36°08' W 005°26'0 0.0
2016-Jun-20 05:24N 36°08' W 005°26'0 0.0
2016-Jun-20 04:33N 36°08' W 005°26'0 0.0
2016-Jun-20 03:33N 36°08' W 005°26'0 0.0
2016-Jun-20 02:33N 36°08' W 005°26'0 0.0
2016-Jun-20 01:30N 36°08' W 005°26'0 0.0
2016-Jun-20 00:30N 36°08' W 005°26'0 0.0
2016-Jun-19 23:30N 36°08' W 005°26'0 0.0
2016-Jun-19 22:33N 36°08' W 005°26'0 0.0
2016-Jun-19 21:30N 36°08' W 005°26'0 0.0
2016-Jun-19 19:15N 36°08' W 005°26'0 0.0
2016-Jun-19 18:21N 36°08' W 005°26'0 0.0
2016-Jun-19 17:24N 36°08' W 005°26'0 0.0
2016-Jun-19 16:33N 36°08' W 005°26'0 0.0
2016-Jun-19 15:30N 36°08' W 005°26'0 0.0
2016-Jun-19 14:30N 36°08' W 005°26'0 0.0
2016-Jun-19 12:09N 36°08' W 005°26'0 0.0
2016-Jun-19 09:06N 36°08' W 005°26'3 0.3
2016-Jun-19 00:31N 36°10' W 005°24'0 0.2
2016-Jun-18 23:07N 36°10' W 005°24'0 0.0
2016-Jun-18 22:22N 36°10' W 005°24'0 0.0
2016-Jun-18 20:13N 36°10' W 005°24'0 0.1
2016-Jun-18 19:31N 36°10' W 005°24'0 0.1
2016-Jun-18 17:31N 36°10' W 005°24'0 0.0
2016-Jun-18 13:13N 36°10' W 005°24'0 0.0
2016-Jun-18 09:19N 36°10' W 005°24'0 0.0
2016-Jun-18 06:31N 36°10' W 005°24'0 0.0
2016-Jun-18 03:16N 36°10' W 005°24'0 0.0
2016-Jun-18 02:22N 36°10' W 005°24'0 0.0
2016-Jun-17 23:13N 36°10' W 005°24'0 0.0
2016-Jun-17 22:28N 36°10' W 005°24'0 0.0
2016-Jun-17 21:31N 36°10' W 005°24'0 0.1
2016-Jun-17 20:31N 36°10' W 005°24'0 0.0
2016-Jun-17 19:22N 36°10' W 005°24'0 0.0
2016-Jun-16 04:31N 36°10' W 005°24'3 0.5
2016-Jun-15 21:13N 36°07' W 005°23'710.6
2016-Jun-15 20:33N 36°00' W 005°23'  
2016-Jun-13 10:33N 28°09' W 015°25'0 0.0
2016-Jun-13 09:33N 28°09' W 015°25'0 0.0
2016-Jun-13 08:33N 28°09' W 015°25'0 0.0
2016-Jun-13 07:33N 28°09' W 015°25'0 0.0
2016-Jun-13 06:33N 28°09' W 015°25'0 0.0
2016-Jun-13 05:33N 28°09' W 015°25'0 0.0
2016-Jun-13 04:33N 28°09' W 015°25'0 0.0
2016-Jun-13 03:24N 28°09' W 015°25'0 0.0
2016-Jun-13 02:27N 28°09' W 015°25'0 0.0
2016-Jun-13 01:27N 28°09' W 015°25'0 0.0
2016-Jun-13 00:27N 28°09' W 015°25'0 0.0
2016-Jun-12 23:30N 28°09' W 015°25'0 0.0
2016-Jun-12 22:30N 28°09' W 015°25'1 1.2
2016-Jun-12 21:33N 28°07' W 015°24'  

Dump ship's entire track history